Main page
METAR-TAF:

METAR-TAF

Airports :

St Mary's Airport

Isles of Scilly, England

latitude: 49-55N, longitude: 006-18W, elevation: 31 m

Current weather observation

The report was made 23 minutes ago, at 08:50 UTC
Wind 3 kt from the East
Temperature 10°C
Humidity 76%
Pressure 1036 hPa
Visibility 10 km or more
Few clouds at a height of 1000 ft

METAR: EGHE 260850Z 08003KT 9999 FEW010 10/06 Q1036

Time: 09:13 (09:13 UTC)

Forecast

The report was made 1 hour and 15 minutes ago, at 07:58 UTC
Forecast valid from 26 at 09 UTC to 26 at 18 UTC
Wind 4 kt from the East/Northeast
Visibility 10 km or more
no clouds below 1500 m and no cumulonimbus

TAF: EGHE 260758Z 2609/2618 07004KT CAVOK

Weather observations and forecasts of more than 4000 airports (METAR and TAF reports).

The available stations are represented by yellow and red dots on the map.

Hover mouse over dot to see the name of the station.

Then click to see weather observations and forecasts.

To change the map : click on the green buttons with a black cross to zoom in, on the green button with a dash to zoom out, or on the green arrows for adjacent maps.


METAR-TAF: